Estación Meteorológica Peña el Pijo (Robertgarden) [ 02/02/23 20:19:31 CET ]

Fecha Hora Presion(HPa) Temp (°C) Humedad % Rocio (°C) Viento ( m/s) Direccion Lluvia 1Hora(mm) Lluvia 24H(mm) LLuvia Total(mm)
2010-Oct-08 01:01:17 1009.800 12.4 92 11.1       5.18 166.79
2010-Oct-08 02:01:13 1009.600 11.6 92 10.3       5.18 166.79
2010-Oct-08 03:03:11 1009.600 11.1 92 9.8       5.18 166.79
2010-Oct-08 04:01:14 1009.000 10.7 93 9.6       5.18 166.79
2010-Oct-08 05:01:15 1008.800 9.9 93 8.8       5.18 166.79
2010-Oct-08 06:01:14 1008.700 9.5 93 8.4       5.18 166.79
2010-Oct-08 07:01:12 1008.700 8.9 94 8.0       5.18 166.79
2010-Oct-08 08:01:16 1008.700 8.4 94 7.5       5.18 166.79
2010-Oct-08 09:01:12 1009.100 8.5 94 7.6       5.18 166.79
2010-Oct-08 10:01:13 1009.600 12.8 95 12.0       5.18 166.79
2010-Oct-08 11:01:15 1009.700 17.6 87 15.4       5.18 166.79
2010-Oct-08 12:01:17 1009.700 20.1 76 15.8       5.18 166.79
2010-Oct-08 13:01:17 1009.100 23.3 63 15.8       5.18 166.79
2010-Oct-08 14:01:13 1008.500 26.7 47 14.4       5.18 166.79
2010-Oct-08 15:01:13 1007.900 26.8 46 14.2       5.18 166.79
2010-Oct-08 16:01:12 1007.500 26.6 47 14.3       5.18 166.79
2010-Oct-08 17:01:12 1007.000 26.6 47 14.3       5.18 166.79
2010-Oct-08 18:01:17 1006.900 24.7 47 12.3       5.18 166.79
2010-Oct-08 19:01:16 1007.300 21.6 59 13.3       5.18 166.79
2010-Oct-08 20:01:17 1007.700 19.9 69 13.8       5.18 166.79
2010-Oct-08 21:01:13 1008.100 17.6 81 14.3         166.79
2010-Oct-08 22:01:16 1008.700 14.9 85 12.4         166.79
2010-Oct-08 23:01:14 1008.700 13.6 88 11.6         166.79

Temperatura Máxima:26°    Temperatura Mínima:
Presión Máxima:1009.800 Hpa    Presión Mínima:1006.900 Hpa


Volver